Time;durP1;ratioP1;P1;durP2;ratioP2;P2;SDS_P1;SDS_P2;PMS_P1;PMS_P2;Temp;Humidity;BMP_temperature;BMP_pressure;BME280_temperature;BME280_humidity;BME280_pressure;Samples;Min_cycle;Max_cycle;Signal;HPM_P1;HPM_P2
2022/12/08 00:00:35;;;;;;;19.67;17.52;;;;;;;1.90;100.00;100823.38;10408488;28;20097;-66
2022/12/08 00:10:57;;;;;;;22.33;19.95;;;;;;;1.99;100.00;100807.00;10412208;28;20304;-67
2022/12/08 00:16:00;;;;;;;24.30;21.00;;;;;;;2.01;100.00;100795.00;10417841;28;20173;-66
2022/12/08 00:21:02;;;;;;;22.08;19.85;;;;;;;1.98;100.00;100795.00;10418271;28;20308;-65
2022/12/08 00:26:06;;;;;;;;;;;;;;;1.97;100.00;100782.16;10418684;28;20058;-65
2022/12/08 00:31:09;;;;;;;24.02;21.58;;;;;;;1.97;100.00;100785.59;10415831;28;19982;-65
2022/12/08 00:36:14;;;;;;;26.25;22.70;;;;;;;1.99;100.00;100778.69;10417836;28;20069;-65
2022/12/08 00:42:10;;;;;;;34.45;23.98;;;;;;;1.98;100.00;100774.41;10417601;28;20111;-66
2022/12/08 00:46:46;;;;;;;30.38;24.48;;;;;;;2.01;100.00;100774.41;10417289;28;20503;-67
2022/12/08 00:51:48;;;;;;;29.17;26.20;;;;;;;2.05;100.00;100765.78;10416595;28;20061;-67
2022/12/08 00:56:51;;;;;;;29.00;25.08;;;;;;;2.08;100.00;100769.22;10414380;28;20064;-65
2022/12/08 01:01:53;;;;;;;29.48;26.13;;;;;;;2.05;100.00;100760.63;10416391;28;20323;-65
2022/12/08 01:06:55;;;;;;;27.55;24.30;;;;;;;2.05;100.00;100758.06;10416172;28;20150;-66
2022/12/08 01:11:59;;;;;;;27.48;23.42;;;;;;;2.05;100.00;100750.34;10416142;28;20458;-66
2022/12/08 01:17:01;;;;;;;21.70;19.55;;;;;;;2.04;100.00;100748.63;10415726;28;20148;-66
2022/12/08 01:22:03;;;;;;;25.17;21.60;;;;;;;2.02;100.00;100745.19;10415244;28;20540;-65
2022/12/08 01:27:06;;;;;;;22.60;20.42;;;;;;;2.00;100.00;100739.22;10412957;28;20091;-66
2022/12/08 01:32:08;;;;;;;22.60;20.33;;;;;;;2.04;100.00;100743.47;10415235;28;20467;-66
2022/12/08 01:37:11;;;;;;;28.33;25.02;;;;;;;2.04;100.00;100738.34;10414711;28;20067;-66
2022/12/08 01:42:22;;;;;;;21.73;19.27;;;;;;;2.06;100.00;100736.59;10414534;28;20111;-67
2022/12/08 01:47:32;;;;;;;40.92;37.85;;;;;;;2.12;100.00;100745.16;10414761;28;20071;-66
2022/12/08 01:52:40;;;;;;;20.25;18.38;;;;;;;2.13;100.00;100736.53;10414962;28;20064;-67
2022/12/08 01:57:49;;;;;;;25.55;22.75;;;;;;;2.15;100.00;100725.34;10412485;28;20072;-66
2022/12/08 02:02:57;;;;;;;23.10;20.27;;;;;;;2.13;100.00;100731.41;10413543;28;20080;-66
2022/12/08 02:08:06;;;;;;;22.00;19.75;;;;;;;2.15;100.00;100719.34;10414210;28;20079;-71
2022/12/08 02:13:13;;;;;;;21.13;19.02;;;;;;;2.14;100.00;100727.94;10413448;28;20624;-65
2022/12/08 02:18:40;;;;;;;22.00;19.65;;;;;;;2.16;100.00;100714.19;10414334;28;20083;-65
2022/12/08 02:23:59;;;;;;;21.85;17.80;;;;;;;2.14;100.00;100712.50;10413438;28;20063;-66
2022/12/08 02:29:51;;;;;;;27.88;25.58;;;;;;;2.14;100.00;100704.78;10410856;28;20148;-66
2022/12/08 02:35:02;;;;;;;19.83;18.07;;;;;;;2.14;100.00;100697.91;10412207;28;20060;-65
2022/12/08 02:40:19;;;;;;;30.95;28.05;;;;;;;2.11;100.00;100681.63;10412382;28;20752;-65
2022/12/08 02:45:29;;;;;;;18.63;17.02;;;;;;;2.12;100.00;100679.03;10413180;28;20067;-66
2022/12/08 02:50:32;;;;;;;17.77;16.27;;;;;;;2.12;100.00;100678.19;10412313;28;20057;-66
2022/12/08 02:55:51;;;;;;;17.02;15.43;;;;;;;2.15;100.00;100676.44;10412261;28;20583;-66
2022/12/08 03:01:19;;;;;;;17.00;15.48;;;;;;;2.17;100.00;100655.81;10409534;28;20094;-65
2022/12/08 03:06:36;;;;;;;20.10;17.40;;;;;;;2.17;100.00;100655.81;10411642;28;20068;-68
2022/12/08 03:11:47;;;;;;;17.90;16.35;;;;;;;2.19;100.00;100649.78;10411934;28;20065;-71
2022/12/08 03:16:55;;;;;;;17.17;15.75;;;;;;;2.22;100.00;100651.47;10411777;28;20061;-65
2022/12/08 03:22:02;;;;;;;19.05;17.30;;;;;;;2.22;100.00;100640.34;10411651;28;20052;-68
2022/12/08 03:27:09;;;;;;;18.70;17.00;;;;;;;2.23;100.00;100634.31;10408993;28;20058;-65
2022/12/08 03:32:23;;;;;;;22.60;20.88;;;;;;;2.23;100.00;100629.16;10412461;28;20061;-66
2022/12/08 03:37:29;;;;;;;25.27;23.05;;;;;;;2.24;100.00;100629.16;10411783;28;20128;-65
2022/12/08 03:42:31;;;;;;;24.65;22.33;;;;;;;2.26;100.00;100618.84;10411236;28;20126;-65
2022/12/08 03:47:33;;;;;;;24.43;21.80;;;;;;;2.28;100.00;100615.38;10416499;28;20182;-66
2022/12/08 03:52:36;;;;;;;25.20;22.00;;;;;;;2.30;100.00;100615.34;10419200;28;20309;-67
2022/12/08 03:57:38;;;;;;;26.58;23.73;;;;;;;2.33;100.00;100609.31;10416832;28;20059;-66
2022/12/08 04:02:39;;;;;;;30.45;24.95;;;;;;;2.35;100.00;100604.97;10418537;28;20176;-64
2022/12/08 04:07:42;;;;;;;32.10;25.10;;;;;;;2.33;100.00;100602.44;10418630;28;20055;-65
2022/12/08 04:12:44;;;;;;;29.33;23.15;;;;;;;2.31;100.00;100599.88;10419403;28;20065;-64
2022/12/08 04:17:47;;;;;;;32.47;26.33;;;;;;;2.31;100.00;100587.00;10418753;28;20064;-67
2022/12/08 04:22:50;;;;;;;28.40;24.30;;;;;;;2.33;100.00;100599.00;10418519;28;20080;-69
2022/12/08 04:27:52;;;;;;;29.88;26.52;;;;;;;2.34;100.00;100595.53;10415689;28;20062;-68
2022/12/08 04:32:53;;;;;;;24.37;21.83;;;;;;;2.33;100.00;100583.56;10417425;28;20187;-68
2022/12/08 04:37:56;;;;;;;25.13;22.25;;;;;;;2.30;100.00;100582.69;10417855;28;20374;-64
2022/12/08 04:42:58;;;;;;;31.83;25.17;;;;;;;2.30;100.00;100585.28;10417274;28;20081;-66
2022/12/08 04:48:01;;;;;;;22.83;20.48;;;;;;;2.27;100.00;100575.03;10417186;28;20065;-65
2022/12/08 04:53:04;;;;;;;20.05;18.15;;;;;;;2.26;100.00;100562.19;10417231;28;20119;-68
2022/12/08 04:58:06;;;;;;;18.10;16.35;;;;;;;2.23;100.00;100563.06;10413770;28;20059;-68
2022/12/08 05:03:09;;;;;;;18.02;16.40;;;;;;;2.25;100.00;100570.75;10416775;28;20090;-68
2022/12/08 05:08:12;;;;;;;16.58;14.43;;;;;;;2.25;100.00;100563.03;10415935;28;20115;-65
2022/12/08 05:13:14;;;;;;;64.75;59.55;;;;;;;2.21;100.00;100561.34;10416422;28;20106;-69
2022/12/08 05:18:16;;;;;;;28.37;26.23;;;;;;;2.19;100.00;100562.25;10416396;28;20062;-68
2022/12/08 05:23:19;;;;;;;11.93;10.80;;;;;;;2.17;100.00;100574.28;10415772;28;20082;-67
2022/12/08 05:28:21;;;;;;;13.18;12.18;;;;;;;2.17;100.00;100565.72;10413278;28;20072;-67
2022/12/08 05:33:24;;;;;;;12.07;11.13;;;;;;;2.17;100.00;100552.84;10415699;28;20061;-67
2022/12/08 05:38:28;;;;;;;12.90;11.65;;;;;;;2.16;100.00;100561.44;10415236;28;20513;-68
2022/12/08 05:43:29;;;;;;;13.18;12.07;;;;;;;2.16;100.00;100557.13;10414610;28;20553;-66
2022/12/08 05:48:31;;;;;;;13.57;12.52;;;;;;;2.19;100.00;100551.09;10415207;28;20064;-67
2022/12/08 05:53:34;;;;;;;14.52;13.32;;;;;;;2.15;100.00;100554.56;10414450;28;20116;-66
2022/12/08 05:58:36;;;;;;;10.73;9.88;;;;;;;2.04;100.00;100558.13;10411942;28;20068;-68
2022/12/08 06:03:38;;;;;;;11.07;10.33;;;;;;;2.00;100.00;100547.88;10413880;28;20107;-67
2022/12/08 06:08:41;;;;;;;11.37;10.57;;;;;;;1.97;100.00;100546.19;10413630;28;20328;-67
2022/12/08 06:13:42;;;;;;;15.80;14.55;;;;;;;1.94;100.00;100546.22;10412218;28;20317;-66
2022/12/08 06:18:44;;;;;;;11.50;10.67;;;;;;;1.88;100.00;100542.00;10412130;28;20061;-67
2022/12/08 06:23:50;;;;;;;10.25;9.75;;;;;;;1.89;100.00;100543.69;10412242;28;20317;-68
2022/12/08 06:28:52;;;;;;;10.52;9.73;;;;;;;1.93;100.00;100539.38;10409824;28;20056;-67
2022/12/08 06:33:55;;;;;;;11.75;11.05;;;;;;;1.93;100.00;100529.94;10411509;28;20111;-68
2022/12/08 06:38:58;;;;;;;10.98;10.30;;;;;;;1.94;100.00;100530.78;10411267;28;20445;-68
2022/12/08 06:44:00;;;;;;;11.18;10.55;;;;;;;1.96;100.00;100543.63;10411631;28;20054;-65
2022/12/08 06:49:02;;;;;;;12.82;11.98;;;;;;;1.94;100.00;100546.22;10410867;28;20474;-66
2022/12/08 06:54:05;;;;;;;13.97;12.97;;;;;;;1.93;100.00;100547.09;10412610;28;20091;-67
2022/12/08 06:59:07;;;;;;;14.48;12.48;;;;;;;1.93;100.00;100539.38;10409775;28;20310;-67
2022/12/08 07:04:09;;;;;;;18.20;16.27;;;;;;;1.95;100.00;100531.66;10412221;28;20096;-68
2022/12/08 07:09:13;;;;;;;12.88;11.98;;;;;;;1.98;100.00;100531.63;10412140;28;20306;-68
2022/12/08 07:14:16;;;;;;;14.98;13.57;;;;;;;2.00;100.00;100542.72;10412130;28;20108;-68
2022/12/08 07:19:17;;;;;;;21.83;19.60;;;;;;;2.02;100.00;100544.41;10412552;28;20094;-68
2022/12/08 07:24:21;;;;;;;24.25;21.67;;;;;;;2.03;100.00;100535.84;10425530;28;20065;-68
2022/12/08 07:29:22;;;;;;;26.90;24.30;;;;;;;2.04;100.00;100541.81;10422458;28;20062;-67
2022/12/08 07:34:24;;;;;;;27.43;23.37;;;;;;;2.03;100.00;100537.56;10425348;28;20113;-70
2022/12/08 07:39:27;;;;;;;33.70;24.92;;;;;;;1.99;100.00;100539.28;10424511;28;20362;-68
2022/12/08 07:44:29;;;;;;;23.55;20.73;;;;;;;1.95;100.00;100535.06;10425161;28;20057;-68
2022/12/08 07:49:32;;;;;;;39.47;35.70;;;;;;;1.94;100.00;100528.22;10424661;28;20123;-69
2022/12/08 07:54:35;;;;;;;25.77;23.08;;;;;;;1.93;100.00;100540.25;10424486;28;20338;-69
2022/12/08 07:59:37;;;;;;;40.25;35.90;;;;;;;1.92;100.00;100545.41;10422551;28;20102;-67
2022/12/08 08:04:39;;;;;;;24.40;22.05;;;;;;;1.95;100.00;100559.97;10424281;28;20091;-68
2022/12/08 08:23:43;;;;;;;22.25;19.95;;;;;;;1.81;100.00;100550.66;10421057;28;20067;-68
2022/12/08 08:28:48;;;;;;;21.90;19.90;;;;;;;1.84;100.00;100554.94;10424512;28;20071;-67
2022/12/08 08:33:50;;;;;;;21.15;18.95;;;;;;;1.87;100.00;100547.16;10418181;28;20045;-68
2022/12/08 08:38:53;;;;;;;26.00;23.00;;;;;;;1.89;100.00;100538.53;10414415;28;20507;-68
2022/12/08 08:43:56;;;;;;;28.75;24.35;;;;;;;1.95;100.00;100544.50;10417163;28;20788;-68
2022/12/08 08:48:58;;;;;;;31.45;26.80;;;;;;;1.98;100.00;100547.91;10417130;28;20162;-68
2022/12/08 08:54:00;;;;;;;32.38;26.60;;;;;;;1.96;100.00;100552.22;10406555;28;20063;-68
2022/12/08 08:59:04;;;;;;;31.83;23.03;;;;;;;1.98;100.00;100537.59;10416629;28;20490;-69
2022/12/08 09:04:06;;;;;;;26.95;23.02;;;;;;;2.08;100.00;100538.34;10416087;28;20311;-70
2022/12/08 09:09:08;;;;;;;29.60;23.58;;;;;;;2.10;100.00;100535.75;10413535;28;20071;-68
2022/12/08 09:14:13;;;;;;;31.85;19.95;;;;;;;2.03;100.00;100535.84;10416147;28;20099;-69
2022/12/08 09:19:15;;;;;;;31.42;24.88;;;;;;;2.03;100.00;100541.00;10416156;28;20115;-68
2022/12/08 09:24:17;;;;;;;27.65;23.45;;;;;;;2.01;100.00;100542.72;10413942;28;20114;-68
2022/12/08 09:29:20;;;;;;;25.10;22.55;;;;;;;2.03;100.00;100535.84;10415747;28;20114;-70
2022/12/08 09:34:22;;;;;;;26.52;20.63;;;;;;;2.06;100.00;100535.78;10415784;28;20470;-69
2022/12/08 09:39:23;;;;;;;23.63;21.27;;;;;;;2.14;100.00;100537.41;10411743;28;20503;-70
2022/12/08 09:44:56;;;;;;;31.63;25.58;;;;;;;2.16;100.00;100531.38;10414160;28;20315;-72
2022/12/08 09:50:05;;;;;;;35.20;25.52;;;;;;;2.14;100.00;100532.28;10414751;28;20550;-71
2022/12/08 09:55:21;;;;;;;38.03;33.97;;;;;;;2.18;100.00;100528.78;10406927;28;20055;-69
2022/12/08 10:00:24;;;;;;;34.28;28.60;;;;;;;2.25;100.00;100522.69;10394825;28;20503;-68
2022/12/08 10:05:29;;;;;;;38.90;29.05;;;;;;;2.29;100.00;100526.94;10414649;28;20053;-72
2022/12/08 10:10:41;;;;;;;37.83;29.95;;;;;;;2.25;100.00;100520.13;10410786;28;20045;-68
2022/12/08 10:15:52;;;;;;;62.75;43.72;;;;;;;2.11;100.00;100522.00;10413601;28;20064;-70
2022/12/08 10:21:09;;;;;;;36.47;26.45;;;;;;;2.14;100.00;100512.53;10412806;28;20077;-73
2022/12/08 10:26:14;;;;;;;35.83;26.85;;;;;;;2.11;100.00;100511.69;10413281;28;20071;-69
2022/12/08 10:31:21;;;;;;;69.47;59.03;;;;;;;2.06;100.00;100502.31;10413158;28;20079;-73
2022/12/08 10:36:23;;;;;;;28.98;23.63;;;;;;;2.17;100.00;100509.94;10410712;28;20099;-75
2022/12/08 10:41:25;;;;;;;25.92;23.10;;;;;;;2.13;100.00;100499.69;10411644;28;20558;-70
2022/12/08 10:46:30;;;;;;;40.15;35.95;;;;;;;2.10;100.00;100499.72;10412112;28;20065;-70
2022/12/08 10:51:39;;;;;;;28.98;19.65;;;;;;;2.18;100.00;100503.03;10411969;28;20061;-70
2022/12/08 10:56:54;;;;;;;24.17;20.40;;;;;;;2.04;100.00;100511.78;10411049;28;20072;-69
2022/12/08 11:01:57;;;;;;;20.15;18.23;;;;;;;2.01;100.00;100514.41;10411536;28;20183;-69
2022/12/08 11:06:59;;;;;;;22.90;20.65;;;;;;;1.79;100.00;100496.63;10409358;28;20057;-70
2022/12/08 11:12:07;;;;;;;22.90;19.80;;;;;;;1.77;100.00;100493.22;10411362;28;20067;-70
2022/12/08 11:17:15;;;;;;;22.50;20.23;;;;;;;1.87;100.00;100488.84;10411980;28;20049;-70
2022/12/08 11:22:25;;;;;;;21.15;19.00;;;;;;;1.82;100.00;100482.03;10411742;28;20091;-69
2022/12/08 11:27:27;;;;;;;28.92;25.13;;;;;;;1.81;100.00;100473.44;10411779;28;20065;-66
2022/12/08 11:32:30;;;;;;;26.25;20.55;;;;;;;1.83;100.00;100476.88;10411427;28;20069;-67
2022/12/08 11:37:40;;;;;;;33.22;19.88;;;;;;;1.87;100.00;100472.53;10408056;28;20472;-67
2022/12/08 11:42:58;;;;;;;27.70;22.15;;;;;;;1.90;100.00;100463.06;10409503;28;20166;-68
2022/12/08 11:48:12;;;;;;;21.38;19.25;;;;;;;2.01;100.00;100467.19;10409777;28;20051;-68
2022/12/08 11:53:25;;;;;;;24.25;21.10;;;;;;;2.01;100.00;100460.34;10410107;28;20123;-68
2022/12/08 11:58:38;;;;;;;25.40;18.80;;;;;;;2.00;100.00;100457.78;10410934;28;20091;-67
2022/12/08 12:03:49;;;;;;;30.83;19.92;;;;;;;1.92;100.00;100455.31;10410310;28;20088;-72
2022/12/08 12:09:09;;;;;;;17.40;15.88;;;;;;;1.74;100.00;100452.09;10414000;28;20068;-66
2022/12/08 12:14:33;;;;;;;21.73;19.42;;;;;;;1.64;100.00;100447.94;10418540;28;20053;-69
2022/12/08 12:19:40;;;;;;;15.18;12.70;;;;;;;1.67;100.00;100441.03;10418254;28;20058;-68
2022/12/08 12:24:45;;;;;;;15.18;12.55;;;;;;;1.70;100.00;100439.28;10417760;28;20429;-68
2022/12/08 12:29:55;;;;;;;15.63;13.20;;;;;;;1.86;100.00;100435.66;10418747;28;20060;-67
2022/12/08 12:35:01;;;;;;;20.95;18.98;;;;;;;1.96;100.00;100433.81;10417378;28;20046;-68
2022/12/08 12:40:16;;;;;;;21.92;18.20;;;;;;;1.95;100.00;100426.94;10414963;28;20067;-68
2022/12/08 12:45:30;;;;;;;18.98;17.10;;;;;;;2.03;100.00;100425.16;10417570;28;20056;-68
2022/12/08 12:50:45;;;;;;;20.30;17.65;;;;;;;2.11;100.00;100424.16;10417007;28;20064;-68
2022/12/08 12:55:56;;;;;;;20.52;18.73;;;;;;;2.15;100.00;100415.53;10417531;28;20046;-68
2022/12/08 13:01:52;;;;;;;25.35;23.05;;;;;;;2.14;100.00;100417.28;10417199;28;20093;-70
2022/12/08 13:06:56;;;;;;;32.70;30.23;;;;;;;2.26;100.00;100412.81;10413884;28;20080;-68
2022/12/08 13:12:07;;;;;;;15.57;14.27;;;;;;;2.31;100.00;100409.31;10416288;28;20088;-68
2022/12/08 13:17:17;;;;;;;14.18;12.77;;;;;;;2.41;100.00;100411.72;10415657;28;20069;-69
2022/12/08 13:23:11;;;;;;;22.85;21.23;;;;;;;2.33;100.00;100411.00;10416170;28;20074;-68
2022/12/08 13:28:21;;;;;;;13.40;12.07;;;;;;;2.46;100.00;100409.91;10415914;28;20086;-68
2022/12/08 13:33:29;;;;;;;11.18;10.38;;;;;;;2.36;100.00;100414.38;10415889;28;20067;-68
2022/12/08 13:38:37;;;;;;;10.50;9.80;;;;;;;2.48;100.00;100402.19;10413453;28;20356;-68
2022/12/08 13:43:47;;;;;;;9.60;9.00;;;;;;;2.46;100.00;100393.63;10415291;28;20179;-68
2022/12/08 13:48:54;;;;;;;12.43;10.45;;;;;;;2.52;100.00;100384.09;10415231;28;20152;-69
2022/12/08 13:54:05;;;;;;;10.10;9.30;;;;;;;2.52;100.00;100381.50;10415058;28;20054;-69
2022/12/08 13:59:10;;;;;;;10.90;10.10;;;;;;;2.51;100.00;100372.09;10414718;28;20237;-69
2022/12/08 14:04:17;;;;;;;10.55;9.88;;;;;;;2.48;100.00;100361.81;10414103;28;20053;-69
2022/12/08 14:09:25;;;;;;;13.40;12.45;;;;;;;2.47;100.00;100365.28;10412409;28;20071;-72
2022/12/08 14:14:31;;;;;;;24.98;23.50;;;;;;;2.30;100.00;100379.25;10414037;28;20081;-69
2022/12/08 14:19:35;;;;;;;10.50;9.55;;;;;;;2.33;100.00;100392.97;10413666;28;20086;-66
2022/12/08 14:24:39;;;;;;;10.90;9.93;;;;;;;2.33;100.00;100398.13;10414119;28;20478;-67
2022/12/08 14:29:45;;;;;;;11.18;10.40;;;;;;;2.24;100.00;100397.41;10412009;28;20058;-67
2022/12/08 14:34:53;;;;;;;10.18;9.60;;;;;;;2.22;100.00;100381.09;10413474;28;20058;-67
2022/12/08 14:40:03;;;;;;;8.32;7.45;;;;;;;2.17;100.00;100382.91;10410851;28;20056;-67
2022/12/08 14:45:11;;;;;;;10.75;7.05;;;;;;;2.18;100.00;100384.59;10413126;28;20076;-68
2022/12/08 14:50:40;;;;;;;7.72;7.22;;;;;;;2.17;100.00;100382.91;10412519;28;20095;-68
2022/12/08 14:55:47;;;;;;;8.65;7.75;;;;;;;2.10;100.00;100378.72;10412337;28;20049;-68
2022/12/08 15:00:53;;;;;;;8.52;8.02;;;;;;;2.02;100.00;100378.84;10412211;28;20127;-67
2022/12/08 15:05:59;;;;;;;9.82;9.30;;;;;;;1.90;100.00;100388.44;10413332;28;20111;-68
2022/12/08 15:11:27;;;;;;;7.78;7.28;;;;;;;1.79;100.00;100387.72;10409351;28;20061;-69
2022/12/08 15:16:38;;;;;;;12.25;7.57;;;;;;;1.73;100.00;100385.22;10412173;28;20045;-68
2022/12/08 15:21:40;;;;;;;8.57;8.07;;;;;;;1.63;100.00;100392.19;10411951;28;20143;-70
2022/12/08 15:26:46;;;;;;;7.32;6.88;;;;;;;1.57;100.00;100392.28;10412267;28;20061;-68
2022/12/08 15:31:48;;;;;;;9.15;8.65;;;;;;;1.48;100.00;100399.25;10411378;28;20087;-67
2022/12/08 15:36:53;;;;;;;7.25;6.78;;;;;;;1.39;100.00;100404.47;10409030;28;20101;-68
2022/12/08 15:41:56;;;;;;;8.43;7.97;;;;;;;1.25;100.00;100397.78;10413838;28;20134;-68
2022/12/08 15:46:59;;;;;;;8.38;7.88;;;;;;;1.18;100.00;100398.72;10419702;28;20068;-67
2022/12/08 15:52:00;;;;;;;9.85;9.20;;;;;;;1.18;100.00;100398.72;10420038;28;20057;-74
2022/12/08 15:57:04;;;;;;;10.03;9.23;;;;;;;1.17;100.00;100403.88;10419619;28;20067;-68
2022/12/08 16:02:06;;;;;;;10.10;9.30;;;;;;;1.06;100.00;100401.41;10418903;28;20089;-68
2022/12/08 16:07:19;;;;;;;9.13;8.63;;;;;;;0.98;100.00;100404.91;10416171;28;20067;-69
2022/12/08 16:17:45;;;;;;;11.98;10.88;;;;;;;0.93;100.00;100411.81;10416858;28;20058;-70
2022/12/08 16:22:48;;;;;;;;;;;;;;;0.92;100.00;100404.97;10417491;28;20091;-67
2022/12/08 16:27:54;;;;;;;9.50;8.93;;;;;;;0.91;100.00;100390.41;10416403;28;19937;-68
2022/12/08 16:32:57;;;;;;;10.65;10.00;;;;;;;0.90;100.00;100378.44;10416478;28;20506;-68
2022/12/08 16:37:59;;;;;;;11.70;10.90;;;;;;;0.90;100.00;100369.00;10414173;28;20069;-67
2022/12/08 16:43:03;;;;;;;14.52;13.27;;;;;;;0.89;100.00;100376.75;10415593;28;20078;-69
2022/12/08 16:48:04;;;;;;;11.88;10.90;;;;;;;0.80;100.00;100379.38;10415860;28;20109;-68
2022/12/08 16:53:09;;;;;;;10.75;10.02;;;;;;;0.69;100.00;100376.91;10414661;28;20510;-68
2022/12/08 16:58:13;;;;;;;11.82;10.63;;;;;;;0.59;100.00;100366.75;10416242;28;20065;-67
2022/12/08 17:03:16;;;;;;;12.00;11.10;;;;;;;0.42;100.00;100369.44;10415065;28;20136;-66
2022/12/08 17:08:18;;;;;;;11.65;10.90;;;;;;;0.33;100.00;100374.63;10412691;28;20168;-67
2022/12/08 17:13:21;;;;;;;12.77;11.37;;;;;;;0.42;100.00;100366.88;10414797;28;20521;-67
2022/12/08 17:18:23;;;;;;;13.20;12.30;;;;;;;0.47;100.00;100371.94;10414553;28;20795;-67
2022/12/08 17:23:25;;;;;;;13.67;12.77;;;;;;;0.54;100.00;100377.91;10413932;28;20675;-67
2022/12/08 17:28:28;;;;;;;14.57;13.57;;;;;;;0.61;100.00;100379.53;10413879;28;20320;-67
2022/12/08 17:33:30;;;;;;;14.02;13.10;;;;;;;0.66;100.00;100377.81;10416351;28;20060;-67
2022/12/08 17:38:31;;;;;;;15.50;14.25;;;;;;;0.70;100.00;100378.63;10412072;28;20067;-67
2022/12/08 17:43:35;;;;;;;15.55;14.35;;;;;;;0.71;100.00;100375.16;10413421;28;20418;-67
2022/12/08 17:48:37;;;;;;;14.80;13.80;;;;;;;0.73;100.00;100378.59;10413632;28;20058;-71
2022/12/08 17:53:40;;;;;;;15.63;14.43;;;;;;;0.77;100.00;100380.25;10413044;28;20049;-68
2022/12/08 17:58:43;;;;;;;16.48;15.13;;;;;;;0.82;100.00;100382.81;10413819;28;20090;-68
2022/12/08 18:03:45;;;;;;;17.48;15.98;;;;;;;0.82;100.00;100363.09;10412509;28;20123;-67
2022/12/08 18:08:47;;;;;;;16.42;15.00;;;;;;;0.80;100.00;100374.25;10410454;28;20070;-68
2022/12/08 18:13:51;;;;;;;16.70;15.25;;;;;;;0.82;100.00;100367.38;10412140;28;20658;-68
2022/12/08 18:18:53;;;;;;;17.80;16.30;;;;;;;0.83;100.00;100371.66;10412602;28;20071;-67
2022/12/08 18:23:55;;;;;;;19.45;17.50;;;;;;;0.82;100.00;100364.81;10411914;28;20474;-68
2022/12/08 18:28:58;;;;;;;19.42;17.58;;;;;;;0.84;100.00;100357.94;10411764;28;20607;-68
2022/12/08 18:34:00;;;;;;;19.58;17.88;;;;;;;0.84;100.00;100360.50;10412165;28;20061;-75
2022/12/08 18:39:02;;;;;;;20.00;18.10;;;;;;;0.84;100.00;100368.22;10410214;28;20680;-69
2022/12/08 18:44:05;;;;;;;20.10;18.20;;;;;;;0.85;100.00;100362.19;10413770;28;20345;-67
2022/12/08 18:49:12;;;;;;;19.95;18.25;;;;;;;0.84;100.00;100350.22;10412559;28;20114;-68
2022/12/08 18:54:15;;;;;;;18.30;16.55;;;;;;;0.82;100.00;100357.94;10403906;28;20089;-67
2022/12/08 18:59:19;;;;;;;17.65;15.95;;;;;;;0.81;100.00;100347.69;10413521;28;20057;-67
2022/12/08 19:04:20;;;;;;;18.88;17.08;;;;;;;0.84;100.00;100350.22;10412058;28;20408;-67
2022/12/08 19:09:23;;;;;;;17.40;15.63;;;;;;;0.87;100.00;100350.19;10409455;28;20113;-66
2022/12/08 19:14:29;;;;;;;19.25;17.58;;;;;;;0.92;100.00;100345.84;10412549;28;20065;-66
2022/12/08 19:19:30;;;;;;;19.42;17.35;;;;;;;0.95;100.00;100347.53;10410699;28;20162;-67
2022/12/08 19:24:35;;;;;;;21.15;19.25;;;;;;;0.96;100.00;100349.25;10411930;28;20079;-68
2022/12/08 19:29:38;;;;;;;21.90;17.75;;;;;;;0.97;100.00;100350.97;10411673;28;20063;-66
2022/12/08 19:34:40;;;;;;;19.67;17.58;;;;;;;0.96;100.00;100352.66;10411996;28;20072;-66
2022/12/08 19:45:10;;;;;;;17.15;15.68;;;;;;;0.95;100.00;100356.09;10411763;28;20075;-70
2022/12/08 19:55:34;;;;;;;16.25;14.65;;;;;;;0.93;100.00;100352.72;10405879;28;20057;-66
2022/12/08 20:00:39;;;;;;;15.82;14.52;;;;;;;0.90;100.00;100345.03;10410693;28;20084;-66
2022/12/08 20:05:44;;;;;;;18.48;16.83;;;;;;;0.84;100.00;100350.22;10410489;28;20090;-68
2022/12/08 20:10:46;;;;;;;19.20;17.35;;;;;;;0.77;100.00;100358.00;10409043;28;20112;-67
2022/12/08 20:15:50;;;;;;;17.77;16.23;;;;;;;0.68;100.00;100350.38;10439337;28;20060;-67
2022/12/08 20:20:52;;;;;;;17.80;15.35;;;;;;;0.55;100.00;100351.34;10453826;28;20062;-67
2022/12/08 20:25:54;;;;;;;15.52;14.23;;;;;;;0.35;100.00;100344.69;10453246;28;20107;-68
2022/12/08 20:30:57;;;;;;;14.77;13.48;;;;;;;0.24;100.00;100355.88;10460105;28;20063;-67
2022/12/08 20:36:02;;;;;;;14.98;13.57;;;;;;;0.17;100.00;100349.06;10460759;28;20070;-66
2022/12/08 20:41:08;;;;;;;17.90;16.27;;;;;;;0.13;100.00;100347.38;10457530;28;20525;-67
2022/12/08 20:46:16;;;;;;;17.02;15.57;;;;;;;0.02;100.00;100342.34;10459727;28;20089;-68
2022/12/08 20:51:19;;;;;;;15.82;14.57;;;;;;;-0.07;100.00;100345.81;10459544;28;20084;-67
2022/12/08 20:56:25;;;;;;;17.42;15.82;;;;;;;-0.14;100.00;100344.13;10459706;28;20077;-66
2022/12/08 21:01:28;;;;;;;18.17;16.25;;;;;;;-0.17;100.00;100339.06;10458441;28;20097;-67
2022/12/08 21:06:31;;;;;;;20.08;18.10;;;;;;;-0.16;100.00;100351.00;10456971;28;20068;-67
2022/12/08 21:11:34;;;;;;;21.88;19.65;;;;;;;-0.15;100.00;100351.00;10458513;28;20067;-67
2022/12/08 21:16:39;;;;;;;19.92;18.13;;;;;;;-0.23;100.00;100354.47;10458040;28;20440;-67
2022/12/08 21:21:40;;;;;;;23.52;18.38;;;;;;;-0.23;100.00;100352.75;10458251;28;20129;-66
2022/12/08 21:26:43;;;;;;;20.88;19.08;;;;;;;-0.21;100.00;100347.63;10457895;28;20065;-68
2022/12/08 21:31:46;;;;;;;21.27;19.10;;;;;;;-0.27;100.00;100361.34;10457515;28;20430;-67
2022/12/08 21:36:48;;;;;;;19.40;17.67;;;;;;;-0.31;100.00;100352.78;10455201;28;20062;-68
2022/12/08 21:47:12;;;;;;;24.75;19.27;;;;;;;-0.24;100.00;100357.91;10457056;28;20515;-67
2022/12/08 21:52:14;;;;;;;21.23;19.08;;;;;;;-0.18;100.00;100358.72;10456705;28;20440;-67
2022/12/08 21:57:17;;;;;;;18.67;17.05;;;;;;;-0.15;100.00;100360.41;10457327;28;20106;-66
2022/12/08 22:02:21;;;;;;;27.10;21.35;;;;;;;-0.13;100.00;100367.22;10457268;28;20095;-67
2022/12/08 22:07:22;;;;;;;26.88;22.50;;;;;;;-0.12;100.00;100368.09;10454572;28;20097;-67
2022/12/08 22:12:24;;;;;;;30.40;23.40;;;;;;;-0.09;100.00;100364.66;10456750;28;20109;-71
2022/12/08 22:17:27;;;;;;;26.08;21.65;;;;;;;-0.09;100.00;100372.34;10456628;28;20069;-67
2022/12/08 22:22:34;;;;;;;23.25;20.92;;;;;;;-0.14;100.00;100360.38;10456073;28;20084;-67
2022/12/08 22:27:36;;;;;;;25.55;20.55;;;;;;;-0.20;100.00;100357.00;10455885;28;20067;-67
2022/12/08 22:32:39;;;;;;;21.42;18.42;;;;;;;-0.34;100.00;100352.78;10455871;28;20058;-67
2022/12/08 22:37:42;;;;;;;29.23;17.38;;;;;;;-0.46;100.00;100353.72;10453775;28;20067;-67
2022/12/08 22:42:44;;;;;;;18.73;16.25;;;;;;;-0.58;100.00;100346.94;10455400;28;20085;-67
2022/12/08 22:47:48;;;;;;;18.88;17.02;;;;;;;-0.74;100.00;100343.59;10455198;28;20065;-67
2022/12/08 22:52:50;;;;;;;22.08;17.85;;;;;;;-0.91;100.00;100341.06;10454141;28;20518;-67
2022/12/08 22:57:53;;;;;;;17.80;16.13;;;;;;;-0.91;100.00;100344.50;10454812;28;20511;-67
2022/12/08 23:02:56;;;;;;;22.10;17.90;;;;;;;-0.86;100.00;100352.16;10454374;28;20353;-66
2022/12/08 23:07:58;;;;;;;20.80;18.73;;;;;;;-0.74;100.00;100351.28;10452758;28;20115;-67
2022/12/08 23:13:00;;;;;;;19.73;17.75;;;;;;;-0.67;100.00;100346.97;10454349;28;20065;-66
2022/12/08 23:18:03;;;;;;;23.50;19.85;;;;;;;-0.57;100.00;100355.47;10454775;28;20077;-67
2022/12/08 23:23:05;;;;;;;27.08;19.10;;;;;;;-0.53;100.00;100347.78;10454300;28;20075;-67
2022/12/08 23:28:08;;;;;;;22.93;20.60;;;;;;;-0.46;100.00;100346.03;10454850;28;20067;-67
2022/12/08 23:33:11;;;;;;;23.02;20.70;;;;;;;-0.41;100.00;100348.59;10454406;28;20315;-67